Time;durP1;ratioP1;P1;durP2;ratioP2;P2;SDS_P1;SDS_P2;PMS_P1;PMS_P2;Temp;Humidity;BMP_temperature;BMP_pressure;BME280_temperature;BME280_humidity;BME280_pressure;Samples;Min_cycle;Max_cycle;Signal;HPM_P1;HPM_P2
2022/05/08 00:01:26;;;;;;;8.60;3.20;;;;;;;11.90;57.20;101742.52;111701;1230;60325;-81
2022/05/08 00:11:30;;;;;;;5.30;3.30;;;;;;;11.82;57.77;101731.53;111603;1230;71537;-80
2022/05/08 00:13:57;;;;;;;7.00;3.30;;;;;;;11.78;58.06;101726.86;111209;1231;70262;-79
2022/05/08 00:16:25;;;;;;;5.10;3.20;;;;;;;11.76;57.56;101733.91;111425;1230;73952;-79
2022/05/08 00:18:53;;;;;;;7.00;3.20;;;;;;;11.74;57.65;101735.64;111270;1230;60479;-79
2022/05/08 00:21:21;;;;;;;8.30;3.10;;;;;;;11.71;57.81;101739.67;111245;1230;58861;-80
2022/05/08 00:23:49;;;;;;;8.70;3.00;;;;;;;11.63;56.76;101736.97;111247;1231;72703;-78
2022/05/08 00:26:18;;;;;;;6.30;3.30;;;;;;;11.53;56.77;101735.15;111394;1230;69889;-76
2022/05/08 00:28:45;;;;;;;6.30;3.10;;;;;;;11.40;58.66;101737.33;111218;1230;68678;-76
2022/05/08 00:31:13;;;;;;;7.90;3.40;;;;;;;11.25;60.34;101737.55;111398;1230;73030;-77
2022/05/08 00:33:40;;;;;;;6.90;3.30;;;;;;;11.02;61.41;101729.98;111139;1232;62231;-77
2022/05/08 00:36:08;;;;;;;5.00;2.90;;;;;;;10.94;61.08;101736.02;111231;1233;61588;-78
2022/05/08 00:38:35;;;;;;;5.10;3.40;;;;;;;10.79;60.28;101741.38;110939;1233;71659;-76
2022/05/08 00:41:03;;;;;;;7.20;3.50;;;;;;;10.64;60.00;101738.60;111071;1233;72355;-78
2022/05/08 00:43:38;;;;;;;5.50;3.20;;;;;;;10.46;63.43;101741.35;111218;1232;67306;-79
2022/05/08 00:46:10;;;;;;;5.60;3.50;;;;;;;10.36;63.26;101741.54;110852;1233;71244;-79
2022/05/08 00:48:42;;;;;;;7.30;3.40;;;;;;;10.25;65.36;101734.67;111209;1232;59562;-78
2022/05/08 00:51:13;;;;;;;7.50;3.40;;;;;;;10.12;66.29;101737.27;110894;1232;59494;-79
2022/05/08 00:53:50;;;;;;;6.10;3.60;;;;;;;10.06;66.84;101736.70;111399;1230;71622;-79
2022/05/08 00:56:19;;;;;;;7.20;3.70;;;;;;;9.98;67.07;101737.31;111305;1229;72337;-77
2022/05/08 00:58:50;;;;;;;6.20;3.50;;;;;;;9.94;67.09;101737.00;111193;1230;70528;-77
2022/05/08 01:01:18;;;;;;;8.20;4.30;;;;;;;9.91;66.86;101733.19;111171;1231;75402;-77
2022/05/08 01:03:46;;;;;;;7.40;3.50;;;;;;;9.87;66.61;101733.09;110901;1230;61609;-79
2022/05/08 01:06:17;;;;;;;5.70;3.60;;;;;;;9.80;66.38;101733.41;110886;1230;60522;-78
2022/05/08 01:08:49;;;;;;;8.20;3.60;;;;;;;9.75;66.34;101734.18;111177;1231;72713;-79
2022/05/08 01:11:17;;;;;;;6.00;3.20;;;;;;;9.70;66.32;101730.27;111205;1231;69990;-78
2022/05/08 01:13:46;;;;;;;8.00;3.60;;;;;;;9.63;68.09;101729.78;111049;1231;69162;-77
2022/05/08 01:16:17;;;;;;;6.30;3.60;;;;;;;9.55;68.89;101727.56;111367;1230;74176;-77
2022/05/08 01:18:48;;;;;;;7.30;3.50;;;;;;;9.52;68.88;101726.35;111340;1231;61766;-78
2022/05/08 01:21:41;;;;;;;9.20;3.90;;;;;;;9.48;69.06;101723.41;111322;1231;60563;-77
2022/05/08 01:24:10;;;;;;;7.30;3.70;;;;;;;9.45;69.13;101726.03;111266;1230;72966;-78
2022/05/08 01:26:38;;;;;;;6.80;3.70;;;;;;;9.40;68.29;101727.48;111050;1231;71270;-78
2022/05/08 01:29:05;;;;;;;9.60;3.40;;;;;;;9.33;66.31;101731.50;111357;1231;69070;-78
2022/05/08 01:31:34;;;;;;;4.50;3.00;;;;;;;9.22;68.35;101731.52;111377;1230;74802;-75
2022/05/08 01:34:01;;;;;;;8.00;4.20;;;;;;;9.16;67.86;101727.67;111603;1229;61459;-77
2022/05/08 01:36:28;;;;;;;5.30;3.50;;;;;;;9.09;69.82;101727.68;111582;1229;60353;-78
2022/05/08 01:38:57;;;;;;;9.20;3.60;;;;;;;9.03;70.72;101729.52;111457;1230;74574;-76
2022/05/08 01:41:24;;;;;;;7.00;3.40;;;;;;;9.02;70.93;101727.52;111540;1230;72623;-79
2022/05/08 01:43:52;;;;;;;5.30;3.70;;;;;;;9.04;70.91;101729.52;111566;1230;69721;-80
2022/05/08 01:48:21;;;;;;;6.40;3.50;;;;;;;9.01;70.89;101728.75;111589;1230;72320;-79
2022/05/08 01:49:39;;;;;;;11.20;3.90;;;;;;;8.96;70.83;101732.13;111537;1230;61974;-78
2022/05/08 01:52:07;;;;;;;6.80;3.70;;;;;;;8.91;70.96;101728.20;111587;1230;60036;-78
2022/05/08 01:54:34;;;;;;;7.10;4.00;;;;;;;8.90;71.17;101728.08;111489;1230;70829;-76
2022/05/08 01:57:02;;;;;;;7.60;3.50;;;;;;;8.92;71.13;101724.88;111552;1230;73126;-79
2022/05/08 01:59:29;;;;;;;5.70;3.70;;;;;;;8.93;70.83;101727.09;111570;1229;68218;-79
2022/05/08 02:02:28;;;;;;;5.90;3.90;;;;;;;8.90;70.78;101726.89;111459;1230;71969;-78
2022/05/08 02:04:56;;;;;;;5.40;3.50;;;;;;;8.85;70.41;101724.84;111637;1230;60551;-79
2022/05/08 02:07:30;;;;;;;9.10;3.70;;;;;;;8.78;70.04;101726.08;111449;1230;61231;-77
2022/05/08 02:09:58;;;;;;;6.90;3.80;;;;;;;8.68;71.14;101728.65;111247;1230;74319;-77
2022/05/08 02:12:27;;;;;;;9.00;3.60;;;;;;;8.61;71.52;101722.73;111256;1230;72912;-78
2022/05/08 02:14:54;;;;;;;8.20;3.70;;;;;;;8.62;71.46;101727.90;111529;1230;69122;-77
2022/05/08 02:17:22;;;;;;;8.30;4.00;;;;;;;8.58;71.99;101728.83;111224;1230;73863;-77
2022/05/08 02:19:49;;;;;;;9.00;4.00;;;;;;;8.58;72.08;101733.46;111473;1230;62243;-78
2022/05/08 02:22:17;;;;;;;6.00;3.60;;;;;;;8.64;71.38;101731.80;111221;1230;60532;-77
2022/05/08 02:24:44;;;;;;;6.20;3.60;;;;;;;8.66;71.32;101732.94;111437;1230;72128;-79
2022/05/08 02:27:11;;;;;;;7.60;3.90;;;;;;;8.63;71.15;101734.28;111350;1230;71054;-79
2022/05/08 02:29:40;;;;;;;6.10;3.10;;;;;;;8.62;71.55;101740.05;111580;1230;70570;-77
2022/05/08 02:32:08;;;;;;;8.10;4.00;;;;;;;8.65;71.53;101742.70;111243;1230;71619;-78
2022/05/08 02:34:35;;;;;;;8.20;3.50;;;;;;;8.69;71.19;101741.98;111362;1231;61153;-77
2022/05/08 02:37:02;;;;;;;5.80;3.40;;;;;;;8.73;71.34;101744.54;111293;1231;61139;-76
2022/05/08 02:39:30;;;;;;;10.40;3.70;;;;;;;8.79;71.13;101747.95;111617;1230;73389;-77
2022/05/08 02:41:57;;;;;;;5.40;3.50;;;;;;;8.83;70.93;101749.30;111567;1230;71374;-75
2022/05/08 02:44:25;;;;;;;8.20;3.90;;;;;;;8.86;71.01;101749.66;111539;1228;69661;-76
2022/05/08 02:46:52;;;;;;;8.40;3.60;;;;;;;8.88;70.90;101750.09;111584;1228;72814;-77
2022/05/08 02:49:20;;;;;;;6.40;3.50;;;;;;;8.95;70.78;101747.85;111382;1230;62867;-76
2022/05/08 02:51:47;;;;;;;6.30;3.60;;;;;;;8.99;70.63;101744.17;111415;1230;60886;-78
2022/05/08 02:54:15;;;;;;;6.00;3.50;;;;;;;9.02;71.01;101746.98;111367;1230;73454;-77
2022/05/08 02:59:28;;;;;;;7.90;4.30;;;;;;;9.20;70.20;101746.08;111454;1229;69655;-77
2022/05/08 03:01:55;;;;;;;11.20;3.70;;;;;;;9.26;69.86;101747.34;111229;1230;72247;-77
2022/05/08 03:05:20;;;;;;;6.60;3.40;;;;;;;9.31;68.85;101748.67;111377;1230;60537;-78
2022/05/08 03:07:48;;;;;;;7.20;3.60;;;;;;;9.31;68.18;101754.04;111664;1230;59650;-77
2022/05/08 03:10:19;;;;;;;7.20;3.70;;;;;;;9.34;67.60;101755.09;111198;1230;73524;-77
2022/05/08 03:12:48;;;;;;;6.30;3.50;;;;;;;9.35;67.83;101757.99;111271;1231;69900;-78
2022/05/08 03:15:17;;;;;;;8.70;3.80;;;;;;;9.38;67.29;101752.65;111173;1231;70029;-77
2022/05/08 03:17:56;;;;;;;6.90;3.40;;;;;;;9.40;68.32;101756.89;111352;1230;75286;-80
2022/05/08 03:25:10;;;;;;;6.70;3.80;;;;;;;9.53;68.62;101766.84;111347;1231;60966;-79
2022/05/08 03:27:37;;;;;;;9.20;4.00;;;;;;;9.61;68.71;101769.19;111164;1233;73439;-77
2022/05/08 03:33:02;;;;;;;5.50;3.80;;;;;;;9.72;68.70;101776.64;111249;1232;60285;-79
2022/05/08 03:35:29;;;;;;;10.00;4.30;;;;;;;9.77;68.04;101774.61;111288;1232;72284;-80
2022/05/08 03:37:57;;;;;;;6.60;4.30;;;;;;;9.87;68.17;101776.02;111294;1232;63129;-78
2022/05/08 03:40:26;;;;;;;8.30;3.90;;;;;;;9.90;68.19;101775.86;111205;1233;59612;-78
2022/05/08 03:42:54;;;;;;;7.10;3.70;;;;;;;10.02;68.20;101773.99;111620;1230;73025;-77
2022/05/08 03:45:22;;;;;;;8.80;4.30;;;;;;;10.08;66.83;101771.60;111421;1231;70058;-77
2022/05/08 03:47:51;;;;;;;12.10;4.80;;;;;;;10.12;64.51;101769.97;111324;1231;67924;-77
2022/05/08 03:50:20;;;;;;;6.90;3.10;;;;;;;10.19;61.09;101771.00;111165;1231;72006;-77
2022/05/08 03:52:48;;;;;;;5.90;3.20;;;;;;;10.27;59.32;101771.98;111296;1230;58802;-78
2022/05/08 03:55:16;;;;;;;6.20;2.70;;;;;;;10.36;58.62;101774.14;111280;1230;61212;-77
2022/05/08 03:57:45;;;;;;;8.90;3.50;;;;;;;10.43;57.87;101780.39;111263;1230;72060;-78
2022/05/08 04:00:19;;;;;;;7.90;3.40;;;;;;;10.42;56.67;101781.30;111219;1231;70259;-77
2022/05/08 04:02:46;;;;;;;5.60;3.00;;;;;;;10.42;56.41;101778.84;111166;1230;67984;-78
2022/05/08 04:05:15;;;;;;;8.40;3.00;;;;;;;10.48;56.55;101775.04;111337;1230;71920;-81
2022/05/08 04:07:43;;;;;;;5.50;3.00;;;;;;;10.54;56.46;101778.34;110971;1230;59688;-75
2022/05/08 04:10:10;;;;;;;9.60;3.30;;;;;;;10.55;56.11;101778.66;111132;1230;59601;-79
2022/05/08 04:12:38;;;;;;;6.50;3.30;;;;;;;10.62;56.38;101780.02;111314;1230;73865;-78
2022/05/08 04:16:15;;;;;;;5.20;3.10;;;;;;;10.68;56.08;101784.73;111175;1230;72163;-79
2022/05/08 04:17:54;;;;;;;8.10;3.90;;;;;;;10.74;55.89;101786.45;111562;1230;68322;-77
2022/05/08 04:20:22;;;;;;;8.50;3.30;;;;;;;10.79;55.56;101786.52;111552;1229;72511;-77
2022/05/08 04:25:36;;;;;;;6.60;3.50;;;;;;;10.82;55.18;101791.95;111579;1229;60618;-77
2022/05/08 04:28:03;;;;;;;6.80;3.20;;;;;;;10.84;54.98;101790.77;111376;1229;71405;-79
2022/05/08 04:30:31;;;;;;;11.10;3.70;;;;;;;10.81;55.34;101794.09;111281;1230;69413;-79
2022/05/08 04:32:59;;;;;;;9.10;3.50;;;;;;;10.78;55.16;101793.94;111493;1231;69595;-79
2022/05/08 04:35:26;;;;;;;7.70;3.70;;;;;;;10.78;55.29;101792.56;111633;1231;71346;-77
2022/05/08 04:37:54;;;;;;;7.10;3.70;;;;;;;10.83;55.54;101792.96;111689;1229;60876;-77
2022/05/08 04:40:23;;;;;;;9.70;3.90;;;;;;;10.74;55.39;101792.97;111393;1230;61726;-77
2022/05/08 04:42:51;;;;;;;11.00;4.80;;;;;;;10.86;55.32;101800.63;111554;1230;71675;-80
2022/05/08 04:45:53;;;;;;;13.00;5.00;;;;;;;10.88;55.73;101804.88;111448;1230;69612;-82
2022/05/08 04:48:22;;;;;;;10.10;3.70;;;;;;;10.90;56.09;101809.46;111315;1230;70816;-80
2022/05/08 04:50:53;;;;;;;7.70;3.50;;;;;;;11.04;55.81;101808.84;111375;1230;73383;-78
2022/05/08 04:53:26;;;;;;;12.00;4.00;;;;;;;11.08;55.10;101809.27;111255;1229;60019;-80
2022/05/08 04:55:58;;;;;;;9.60;3.60;;;;;;;11.15;54.86;101812.06;111602;1229;60369;-79
2022/05/08 04:58:31;;;;;;;8.30;3.50;;;;;;;11.14;55.11;101810.70;111418;1230;73329;-81
2022/05/08 05:00:58;;;;;;;9.40;3.60;;;;;;;11.15;54.74;101813.80;111406;1230;70307;-78
2022/05/08 05:03:28;;;;;;;9.20;3.60;;;;;;;11.11;54.67;101814.15;111265;1230;70210;-78
2022/05/08 05:05:55;;;;;;;9.00;4.00;;;;;;;11.15;54.58;101813.26;111559;1229;72326;-77
2022/05/08 05:08:22;;;;;;;7.70;3.70;;;;;;;11.20;54.22;101814.40;111528;1230;61193;-75
2022/05/08 05:10:53;;;;;;;10.10;3.30;;;;;;;11.26;54.16;101816.48;111519;1230;61840;-78
2022/05/08 05:13:20;;;;;;;9.20;3.30;;;;;;;11.35;53.96;101815.07;111478;1230;71461;-78
2022/05/08 05:15:48;;;;;;;6.10;3.20;;;;;;;11.44;53.99;101814.71;111506;1230;70406;-79
2022/05/08 05:18:15;;;;;;;9.60;3.40;;;;;;;11.50;53.41;101813.31;111599;1230;69598;-80
2022/05/08 05:24:49;;;;;;;9.30;3.40;;;;;;;11.62;52.24;101813.31;111618;1230;61656;-82
2022/05/08 05:32:32;;;;;;;10.70;3.50;;;;;;;11.82;52.50;101821.54;111785;1230;72471;-81
2022/05/08 05:35:00;;;;;;;7.90;2.90;;;;;;;11.91;51.89;101821.52;111660;1230;69595;-81
2022/05/08 05:37:57;;;;;;;6.50;2.70;;;;;;;11.95;51.87;101821.13;111424;1230;68026;-80
2022/05/08 05:40:35;;;;;;;7.60;2.80;;;;;;;11.81;51.25;101799.08;111809;1230;73359;-82
2022/05/08 05:43:03;;;;;;;11.10;4.40;;;;;;;11.97;50.79;101820.45;111221;1230;60997;-76
2022/05/08 05:45:30;;;;;;;6.30;2.80;;;;;;;12.01;51.01;101819.01;111200;1230;60815;-78
2022/05/08 05:48:00;;;;;;;8.90;3.00;;;;;;;12.15;50.54;101825.15;111264;1230;73691;-79
2022/05/08 05:50:28;;;;;;;7.00;3.20;;;;;;;12.23;50.08;101829.40;111448;1229;71889;-78
2022/05/08 05:52:56;;;;;;;5.60;3.00;;;;;;;12.36;50.14;101827.17;111210;1230;69169;-82
2022/05/08 05:55:29;;;;;;;10.30;3.20;;;;;;;12.46;49.97;101825.34;111332;1230;72038;-79
2022/05/08 05:58:04;;;;;;;5.50;2.90;;;;;;;12.68;49.90;101824.27;111324;1231;60320;-80
2022/05/08 06:00:32;;;;;;;7.90;3.10;;;;;;;12.77;49.81;101823.56;110987;1231;61742;-77
2022/05/08 06:03:00;;;;;;;5.60;2.90;;;;;;;12.92;49.24;101823.63;111301;1231;72171;-77
2022/05/08 06:05:28;;;;;;;7.80;2.90;;;;;;;13.02;48.35;101824.54;111367;1230;72270;-76
2022/05/08 06:07:55;;;;;;;7.90;3.10;;;;;;;13.19;48.43;101826.91;111025;1231;69013;-75
2022/05/08 06:10:24;;;;;;;8.40;2.90;;;;;;;13.32;48.13;101826.09;111373;1230;71116;-76
2022/05/08 06:12:52;;;;;;;5.40;3.00;;;;;;;13.50;47.78;101819.13;111326;1230;60548;-78
2022/05/08 06:15:19;;;;;;;6.00;3.00;;;;;;;13.56;47.54;101822.05;111522;1230;59297;-77
2022/05/08 06:17:46;;;;;;;6.60;3.00;;;;;;;13.67;47.15;101823.91;111534;1230;73717;-75
2022/05/08 06:20:14;;;;;;;5.40;2.70;;;;;;;13.80;47.17;101823.41;111485;1230;71235;-78
2022/05/08 06:22:45;;;;;;;13.10;2.90;;;;;;;13.75;47.36;101826.38;111300;1231;69403;-78
2022/05/08 06:25:22;;;;;;;7.00;4.00;;;;;;;14.01;47.28;101823.54;111411;1230;72389;-75
2022/05/08 06:27:50;;;;;;;8.10;3.10;;;;;;;14.09;46.99;101820.67;111326;1231;61384;-75
2022/05/08 06:30:17;;;;;;;7.70;2.90;;;;;;;14.32;46.04;101820.33;111206;1231;59380;-76
2022/05/08 06:32:45;;;;;;;12.20;4.90;;;;;;;14.31;46.15;101822.11;111317;1230;73718;-76
2022/05/08 06:35:32;;;;;;;4.50;3.20;;;;;;;14.42;46.27;101821.04;111376;1230;70765;-75
2022/05/08 06:38:00;;;;;;;10.20;3.10;;;;;;;14.31;46.04;101825.80;111548;1229;70496;-77
2022/05/08 06:40:29;;;;;;;8.20;3.10;;;;;;;14.41;46.24;101826.73;111618;1230;72298;-76
2022/05/08 06:42:57;;;;;;;5.50;2.80;;;;;;;14.58;45.94;101827.07;111651;1228;61220;-82
2022/05/08 06:46:09;;;;;;;7.70;2.80;;;;;;;14.66;45.76;101815.80;111144;1228;59687;31
2022/05/08 06:48:41;;;;;;;8.40;4.10;;;;;;;14.61;45.83;101788.63;111242;1230;73376;31
2022/05/08 06:51:11;;;;;;;6.30;3.10;;;;;;;14.82;45.62;101809.59;111452;1230;71336;-82
2022/05/08 06:53:42;;;;;;;7.40;3.10;;;;;;;14.98;45.48;101817.89;111538;1230;60121;-84
2022/05/08 06:56:13;;;;;;;7.60;2.80;;;;;;;15.08;45.24;101822.39;111808;1231;71459;-83
2022/05/08 07:01:34;;;;;;;6.40;2.80;;;;;;;15.50;44.88;101823.11;111268;1231;62239;-83
2022/05/08 07:16:29;;;;;;;7.10;3.10;;;;;;;15.79;44.55;101823.73;111179;1231;72940;-84
2022/05/08 07:18:58;;;;;;;6.40;2.90;;;;;;;15.81;44.40;101819.17;111325;1231;60944;-86
2022/05/08 07:38:48;;;;;;;8.70;2.90;;;;;;;16.77;42.56;101816.58;110404;1230;955024;-84
2022/05/08 07:58:43;;;;;;;10.10;3.30;;;;;;;17.22;41.55;101807.94;110543;1230;958084;31
2022/05/08 08:09:14;;;;;;;8.50;3.30;;;;;;;18.01;40.57;101801.44;111159;1230;60907;-81
2022/05/08 08:16:54;;;;;;;5.60;3.50;;;;;;;18.20;39.93;101798.55;111118;1230;69465;31
2022/05/08 08:23:19;;;;;;;14.80;3.60;;;;;;;18.67;39.36;101798.11;110689;1228;959208;-84
2022/05/08 08:31:02;;;;;;;6.40;2.60;;;;;;;18.57;37.80;101788.73;111257;1230;62111;31
2022/05/08 08:37:37;;;;;;;6.80;2.30;;;;;;;19.12;34.64;101790.84;110606;1231;955401;-83
2022/05/08 09:18:16;;;;;;;5.30;2.90;;;;;;;19.68;28.42;101776.33;111076;1228;59301;31
2022/05/08 09:20:48;;;;;;;3.60;2.20;;;;;;;20.04;27.66;101754.86;111090;1230;73717;-85
2022/05/08 09:28:44;;;;;;;6.80;3.30;;;;;;;20.39;25.52;101769.14;111001;1230;67637;31
2022/05/08 09:40:24;;;;;;;5.40;2.70;;;;;;;20.96;22.89;101759.79;111036;1231;58039;31
2022/05/08 09:51:12;;;;;;;9.20;3.40;;;;;;;20.67;20.33;101753.44;111225;1230;59169;-82
2022/05/08 09:57:50;;;;;;;4.70;3.10;;;;;;;21.01;20.15;101746.55;111382;1228;58030;-87
2022/05/08 10:16:49;;;;;;;5.00;3.10;;;;;;;21.57;19.44;101724.30;111543;1233;64838;-79
2022/05/08 10:19:19;;;;;;;10.50;3.60;;;;;;;21.70;18.01;101726.95;111575;1232;61064;-79
2022/05/08 10:22:13;;;;;;;4.90;3.20;;;;;;;21.92;17.70;101725.33;111651;1232;61609;-79
2022/05/08 10:24:41;;;;;;;8.30;2.70;;;;;;;22.15;18.06;101720.80;111184;1233;413896;-80
2022/05/08 10:27:14;;;;;;;5.20;2.50;;;;;;;22.28;17.67;101711.98;111639;1232;61268;-80
2022/05/08 10:29:50;;;;;;;9.80;3.40;;;;;;;22.69;18.45;101711.55;111503;1232;59344;-81
2022/05/08 10:32:31;;;;;;;4.30;2.60;;;;;;;23.03;17.40;101712.30;111512;1233;63531;-82
2022/05/08 10:35:18;;;;;;;3.60;2.60;;;;;;;23.19;16.76;101714.23;111671;1232;57752;-78
2022/05/08 10:37:52;;;;;;;6.40;2.50;;;;;;;23.77;15.91;101704.17;111554;1232;60598;-81
2022/05/08 10:40:23;;;;;;;3.10;2.40;;;;;;;23.78;15.68;101705.66;111342;1232;72901;-80
2022/05/08 10:42:55;;;;;;;4.80;2.50;;;;;;;24.20;15.61;101704.13;111594;1232;61303;-79
2022/05/08 10:45:31;;;;;;;5.20;2.90;;;;;;;24.26;15.95;101701.52;111109;1232;69862;-81
2022/05/08 10:48:03;;;;;;;6.30;3.10;;;;;;;24.43;15.18;101701.27;111407;1233;63269;-81
2022/05/08 10:50:31;;;;;;;5.50;2.50;;;;;;;24.81;14.79;101698.08;111541;1232;60401;-81
2022/05/08 10:52:58;;;;;;;3.10;2.00;;;;;;;24.70;15.58;101697.64;111775;1231;58037;-79
2022/05/08 10:55:29;;;;;;;5.10;2.60;;;;;;;24.80;15.18;101692.73;111623;1231;62181;-83
2022/05/08 10:57:56;;;;;;;5.80;3.20;;;;;;;24.15;15.55;101693.08;111517;1231;60953;-79
2022/05/08 11:00:28;;;;;;;5.10;1.90;;;;;;;24.25;15.79;101691.06;111455;1231;60125;-82
2022/05/08 11:03:00;;;;;;;3.80;2.00;;;;;;;24.28;15.88;101686.99;111503;1231;63803;-77
2022/05/08 11:05:34;;;;;;;6.40;2.70;;;;;;;24.21;15.73;101686.90;111416;1234;60537;-81
2022/05/08 11:08:07;;;;;;;4.50;2.50;;;;;;;23.98;16.10;101679.02;111625;1231;60785;-81
2022/05/08 11:10:41;;;;;;;4.70;2.30;;;;;;;23.40;15.99;101675.56;111778;1230;63396;-79
2022/05/08 11:13:15;;;;;;;3.60;2.40;;;;;;;23.27;15.86;101677.23;111513;1231;71443;-78
2022/05/08 11:15:51;;;;;;;5.70;2.40;;;;;;;24.24;15.38;101669.38;111843;1229;59663;-80
2022/05/08 11:18:24;;;;;;;6.00;2.20;;;;;;;23.76;16.54;101668.90;111423;1230;72097;-75
2022/05/08 11:21:04;;;;;;;3.50;2.00;;;;;;;23.48;17.23;101669.02;111450;1231;61619;-76
2022/05/08 11:23:41;;;;;;;3.80;1.80;;;;;;;23.90;16.56;101661.96;111572;1231;62306;-78
2022/05/08 11:26:10;;;;;;;5.40;1.90;;;;;;;24.33;16.15;101656.33;111527;1231;62709;-78
2022/05/08 11:28:55;;;;;;;3.70;2.10;;;;;;;25.13;15.81;101659.27;111804;1230;72497;-78
2022/05/08 11:31:27;;;;;;;4.40;1.70;;;;;;;24.65;16.57;101657.30;111455;1231;69680;-79
2022/05/08 11:36:46;;;;;;;4.40;2.20;;;;;;;24.36;15.79;101644.29;111480;1231;61228;-78
2022/05/08 11:39:17;;;;;;;7.70;2.40;;;;;;;24.79;15.76;101640.23;111474;1233;61040;-83
2022/05/08 11:41:48;;;;;;;3.90;1.90;;;;;;;24.94;15.63;101641.27;111533;1231;73290;-77
2022/05/08 11:44:35;;;;;;;5.50;2.10;;;;;;;25.61;15.32;101642.48;111488;1231;72055;-81
2022/05/08 11:47:12;;;;;;;3.50;1.80;;;;;;;26.20;15.01;101640.77;111495;1229;59584;-78
2022/05/08 11:49:44;;;;;;;4.10;2.10;;;;;;;26.37;14.76;101636.89;111283;1230;63646;-78
2022/05/08 11:52:22;;;;;;;3.00;1.80;;;;;;;26.16;14.96;101631.11;111575;1231;61477;-79
2022/05/08 11:54:59;;;;;;;5.70;2.40;;;;;;;26.68;14.79;101627.41;111701;1230;57782;-80
2022/05/08 11:58:07;;;;;;;5.50;2.30;;;;;;;26.66;15.39;101627.14;111793;1230;73699;-81
2022/05/08 12:06:11;;;;;;;8.10;5.80;;;;;;;24.60;16.48;101623.41;111674;1230;70346;-81
2022/05/08 12:14:49;;;;;;;3.10;1.90;;;;;;;25.92;15.10;101606.55;110994;1238;57160;-83
2022/05/08 12:17:17;;;;;;;9.00;2.20;;;;;;;26.27;14.89;101599.02;111199;1237;60426;-82
2022/05/08 12:19:56;;;;;;;6.80;2.40;;;;;;;26.10;15.51;101594.17;111199;1238;72856;-81
2022/05/08 12:22:28;;;;;;;4.60;2.30;;;;;;;25.36;15.89;101589.34;111626;1230;62055;-80
2022/05/08 12:24:58;;;;;;;3.50;2.20;;;;;;;26.14;15.67;101592.24;112107;1229;59193;-81
2022/05/08 12:27:28;;;;;;;4.70;2.00;;;;;;;27.68;14.47;101589.05;111744;1230;73136;-82
2022/05/08 12:47:50;;;;;;;5.80;2.90;;;;;;;28.98;14.11;101573.84;93906;1305;957763;-76
2022/05/08 12:50:19;;;;;;;4.30;2.00;;;;;;;27.36;14.92;101571.30;105102;1289;59601;-77
2022/05/08 12:52:55;;;;;;;5.90;2.10;;;;;;;27.95;14.70;101570.56;105375;1283;63875;-78
2022/05/08 12:55:25;;;;;;;3.50;1.70;;;;;;;27.82;14.85;101571.07;105409;1282;60804;-80
2022/05/08 13:00:41;;;;;;;4.10;1.80;;;;;;;28.66;14.59;101559.64;105455;1280;71312;-80
2022/05/08 13:03:11;;;;;;;4.60;2.00;;;;;;;28.64;14.66;101554.43;105623;1280;61642;-78
2022/05/08 13:05:43;;;;;;;4.60;1.90;;;;;;;30.72;13.40;101553.91;105744;1279;70568;-79
2022/05/08 13:08:11;;;;;;;4.00;2.10;;;;;;;30.42;12.93;101548.65;105810;1280;74820;-77
2022/05/08 13:10:41;;;;;;;3.30;1.90;;;;;;;28.91;14.16;101547.25;105905;1279;58073;-77
2022/05/08 13:13:10;;;;;;;3.50;1.80;;;;;;;28.45;14.94;101546.21;105594;1280;59608;-78
2022/05/08 13:15:38;;;;;;;4.30;1.90;;;;;;;29.66;14.06;101545.98;105718;1282;73492;-77
2022/05/08 13:18:07;;;;;;;3.70;1.80;;;;;;;29.86;13.79;101545.84;105804;1280;61593;-78
2022/05/08 13:20:37;;;;;;;4.20;2.00;;;;;;;30.23;13.69;101540.84;105656;1281;69854;-76
2022/05/08 13:23:12;;;;;;;5.20;1.90;;;;;;;30.18;14.04;101539.58;106168;1280;63637;-77
2022/05/08 13:25:46;;;;;;;3.80;1.90;;;;;;;30.52;13.72;101539.48;106541;1280;57568;-79
2022/05/08 13:28:15;;;;;;;3.60;1.60;;;;;;;30.18;13.86;101534.85;106306;1280;59169;-79
2022/05/08 13:30:44;;;;;;;3.20;1.80;;;;;;;31.08;13.21;101531.37;106409;1280;61412;-78
2022/05/08 13:33:13;;;;;;;4.40;2.60;;;;;;;29.86;14.41;101524.93;106466;1280;61044;-78
2022/05/08 13:35:42;;;;;;;6.60;2.20;;;;;;;28.68;15.23;101525.28;106387;1280;69940;-80
2022/05/08 13:38:13;;;;;;;7.00;2.20;;;;;;;28.52;15.44;101521.57;106101;1280;74023;-79
2022/05/08 13:40:44;;;;;;;4.90;2.20;;;;;;;28.77;15.39;101522.42;106326;1280;62092;-81
2022/05/08 13:43:15;;;;;;;4.20;2.10;;;;;;;28.54;15.51;101521.58;106041;1280;58344;-79
2022/05/08 13:45:45;;;;;;;4.00;2.00;;;;;;;30.54;13.99;101525.65;106322;1283;61984;-78
2022/05/08 13:48:14;;;;;;;5.20;2.10;;;;;;;31.24;13.59;101524.84;105148;1279;71547;-77
2022/05/08 13:50:44;;;;;;;5.30;2.20;;;;;;;30.18;14.43;101526.77;105010;1279;70524;-77
2022/05/08 13:53:14;;;;;;;4.90;1.90;;;;;;;29.55;14.97;101526.20;105093;1281;63379;-77
2022/05/08 13:55:45;;;;;;;9.30;2.10;;;;;;;29.11;14.90;101521.10;105074;1280;60609;-77
2022/05/08 13:58:15;;;;;;;5.00;1.90;;;;;;;29.87;14.81;101522.58;105005;1280;61878;-78
2022/05/08 14:01:08;;;;;;;6.00;2.20;;;;;;;30.33;14.30;101523.97;106500;1279;72754;-81
2022/05/08 14:03:37;;;;;;;4.20;2.00;;;;;;;30.41;14.11;101524.20;106485;1283;61512;-79
2022/05/08 14:06:09;;;;;;;4.00;1.90;;;;;;;30.62;14.14;101523.50;106393;1282;69788;-78
2022/05/08 14:08:40;;;;;;;4.00;1.90;;;;;;;31.32;13.69;101523.86;105801;1283;74529;-78
2022/05/08 14:11:10;;;;;;;5.00;1.90;;;;;;;30.78;14.09;101524.11;105983;1283;59085;-77
2022/05/08 14:13:40;;;;;;;5.00;1.90;;;;;;;30.02;14.66;101526.17;106117;1283;57559;-79
2022/05/08 14:16:09;;;;;;;4.10;1.60;;;;;;;31.02;14.06;101526.01;105654;1283;61521;-77
2022/05/08 14:18:42;;;;;;;4.00;1.70;;;;;;;30.99;13.79;101523.60;106378;1283;71462;-80
2022/05/08 14:22:30;;;;;;;3.70;1.80;;;;;;;31.28;13.57;101512.75;106484;1286;59670;-81
2022/05/08 14:25:01;;;;;;;4.00;1.80;;;;;;;30.85;14.16;101517.77;105682;1285;73320;-78
2022/05/08 14:27:32;;;;;;;5.30;1.90;;;;;;;29.64;14.85;101514.44;105647;1283;61105;-79
2022/05/08 14:30:08;;;;;;;4.10;1.80;;;;;;;29.45;15.06;101509.98;105265;1286;59146;-77
2022/05/08 14:38:29;;;;;;;5.40;1.80;;;;;;;30.74;14.42;101507.79;107170;1272;70339;-86
2022/05/08 14:45:18;;;;;;;;;;;;;;;30.40;14.38;101505.70;107196;1270;60885;-77
2022/05/08 14:47:48;;;;;;;5.10;2.10;;;;;;;30.15;14.80;101504.27;104998;1280;62744;-77
2022/05/08 14:50:17;;;;;;;6.10;2.60;;;;;;;30.60;14.09;101503.00;105018;1280;73164;-78
2022/05/08 14:52:47;;;;;;;6.80;2.20;;;;;;;29.57;14.89;101500.37;104861;1282;62588;-74
2022/05/08 14:55:16;;;;;;;4.80;1.90;;;;;;;29.57;15.00;101499.80;104789;1280;69442;-75
2022/05/08 14:57:45;;;;;;;4.80;1.90;;;;;;;29.27;15.02;101499.55;104795;1280;74637;-79
2022/05/08 15:00:22;;;;;;;3.90;1.90;;;;;;;28.98;15.60;101497.60;104744;1283;59033;-77
2022/05/08 15:02:52;;;;;;;4.20;2.10;;;;;;;29.57;15.10;101499.97;104938;1279;59212;-78
2022/05/08 15:05:21;;;;;;;7.50;2.20;;;;;;;30.47;14.47;101503.26;105041;1280;61557;-76
2022/05/08 15:07:51;;;;;;;4.60;2.10;;;;;;;30.15;14.95;101506.55;104828;1280;62203;-77
2022/05/08 15:10:20;;;;;;;8.00;1.80;;;;;;;30.82;14.33;101507.13;104794;1282;60065;-78
2022/05/08 15:12:50;;;;;;;4.50;1.90;;;;;;;30.97;14.02;101505.98;104795;1280;73212;-77
2022/05/08 15:15:21;;;;;;;4.20;2.20;;;;;;;32.38;13.26;101501.89;105021;1279;59519;-79
2022/05/08 15:20:38;;;;;;;6.90;2.80;;;;;;;32.01;13.16;101493.21;104865;1282;72974;-77
2022/05/08 15:23:08;;;;;;;6.70;2.20;;;;;;;32.14;13.08;101500.04;105212;1279;70935;-78
2022/05/08 15:25:37;;;;;;;5.80;2.00;;;;;;;30.66;14.23;101499.52;105135;1279;71598;-77
2022/05/08 15:28:05;;;;;;;3.10;2.00;;;;;;;30.90;13.97;101500.34;105674;1279;64987;-77
2022/05/08 15:30:34;;;;;;;7.40;2.40;;;;;;;31.08;14.02;101501.40;105998;1279;58372;-80
2022/05/08 15:33:03;;;;;;;5.40;2.10;;;;;;;31.14;14.00;101501.09;106145;1279;59396;-78
2022/05/08 15:35:32;;;;;;;5.20;2.00;;;;;;;30.24;14.56;101501.52;106387;1277;72928;-78